Morro Bay, CA

7:41 PM PDT on September 16, 2014 (GMT -0700)
Bonita and Hwy 1 | Change Station
CLOSE
Current Station
Personal Weather Station
Location: Morro Bay, CA
Elevation: 45 ft
Nearby Weather Stations

Elev 45 ft 35.39 °N, 120.86 °W | Updated 7 seconds ago

Clear
Clear
64.2 °F
Feels Like 64.2 °F
N
6.0
Wind Variable Wind from East
Gusts 7.0 mph

Today
High -- | Low -- °F
--% Chance of Precip.
Yesterday
High -- | Low -- °F
Precip. -- in
6:46 AM 7:08 PM
Last Quarter, 40% visible
Pressure 29.80 in
Visibility 10.0 miles
Clouds Clear
Dew Point 58 °F
Humidity 80%
Rainfall 0.00 in
Snow Depth 0 in , 0 in , 1 in
UV 0 out of 12
Pollen 7.60 out of 12
Air Quality Not available.
Flu Activity Not available.
METAR KSBP 170156Z 31013KT 10SM CLR 18/14 A2980 RMK AO2 SLP089 T01830144

More Conditions Fewer Conditions

Pressure 29.80 in
Visibility 10.0 miles
Clouds Clear
Dew Point 58 °F
Humidity 80%
Rainfall 0.00 in
Snow Depth 0 in , 0 in , 1 in
UV 0 out of 12
Pollen 7.60 out of 12
Air Quality Not available.
Flu Activity Not available.
METAR KSBP 170156Z 31013KT 10SM CLR 18/14 A2980 RMK AO2 SLP089 T01830144

More Conditions Fewer Conditions

10-Day Weather Forecast

Almanac

Astronomy

Sep. 16, 2014 Rise Set
Actual Time 6:46 AM PDT 7:08 PM PDT
Civil Twilight 6:21 AM PDT 7:34 PM PDT
Nautical Twilight 5:51 AM PDT 8:04 PM PDT
Astronomical Twilight 5:21 AM PDT 8:34 PM PDT
Moon 12:10 AM PDT (9/16) 2:27 PM PDT (9/16)
Length of Visible Light 13h 12m
Length of Day
12h 21m
Tomorrow will be 2m 13s shorter.
Last Quarter, 40% of the Moon is Illuminated
Today
Last Quarter
Sep 24
New
Oct 1
First Quarter
Oct 8
Full
Oct 15
Last Quarter

Today's Extremes

State Highs State Lows

Community

WunderPhotos

Upload Photos

1,753,949 photos uploaded!

Nearby

Snow Depth

Station Depth Elevation
Hagan's Meadow 0 in 8000 ft
Adin Mountain 0 in 6200 ft
Leavitt Meadows 1 in 7200 ft
Leavitt Lake 0 in 9400 ft
CSS Lab 2 in 6900 ft

Earthquake Activity

City Distance Mag. Time & Date
No recent earthquake activity has been reported nearby.
Minimum magnitude displayed is 2.5.

Coastal Water Temperatures

Place Temperature
No Stations Reporting

Nearby Weather Stations